sensor_id;sensor_type;location;lat;lon;timestamp;P1;durP1;ratioP1;P2;durP2;ratioP2
4174;SDS011;2101;48.290;14.382;2023-07-28T00:01:25;16.30;;;1.33;;
4174;SDS011;2101;48.290;14.382;2023-07-28T00:03:51;13.93;;;1.30;;
4174;SDS011;2101;48.290;14.382;2023-07-28T00:06:17;14.90;;;1.50;;
4174;SDS011;2101;48.290;14.382;2023-07-28T00:08:43;14.60;;;1.30;;
4174;SDS011;2101;48.290;14.382;2023-07-28T00:11:10;14.30;;;1.33;;
4174;SDS011;2101;48.290;14.382;2023-07-28T00:13:37;14.50;;;1.30;;
4174;SDS011;2101;48.290;14.382;2023-07-28T00:16:03;19.83;;;1.20;;
4174;SDS011;2101;48.290;14.382;2023-07-28T00:18:30;15.60;;;1.60;;
4174;SDS011;2101;48.290;14.382;2023-07-28T00:20:56;16.20;;;1.43;;
4174;SDS011;2101;48.290;14.382;2023-07-28T00:23:22;14.60;;;1.50;;
4174;SDS011;2101;48.290;14.382;2023-07-28T00:25:49;14.30;;;1.60;;
4174;SDS011;2101;48.290;14.382;2023-07-28T00:28:15;14.03;;;1.20;;
4174;SDS011;2101;48.290;14.382;2023-07-28T00:30:41;15.63;;;1.20;;
4174;SDS011;2101;48.290;14.382;2023-07-28T00:33:07;15.00;;;1.67;;
4174;SDS011;2101;48.290;14.382;2023-07-28T00:35:34;29.17;;;1.50;;
4174;SDS011;2101;48.290;14.382;2023-07-28T00:38:01;17.00;;;1.63;;
4174;SDS011;2101;48.290;14.382;2023-07-28T00:40:27;14.87;;;1.70;;
4174;SDS011;2101;48.290;14.382;2023-07-28T00:42:53;16.87;;;1.97;;
4174;SDS011;2101;48.290;14.382;2023-07-28T00:45:19;15.10;;;1.60;;
4174;SDS011;2101;48.290;14.382;2023-07-28T00:47:49;15.77;;;1.70;;
4174;SDS011;2101;48.290;14.382;2023-07-28T00:50:15;14.97;;;1.50;;
4174;SDS011;2101;48.290;14.382;2023-07-28T00:52:41;15.37;;;1.80;;
4174;SDS011;2101;48.290;14.382;2023-07-28T00:55:11;14.37;;;1.30;;
4174;SDS011;2101;48.290;14.382;2023-07-28T00:57:38;14.10;;;1.30;;
4174;SDS011;2101;48.290;14.382;2023-07-28T01:00:04;14.87;;;1.50;;
4174;SDS011;2101;48.290;14.382;2023-07-28T01:02:31;14.63;;;1.50;;
4174;SDS011;2101;48.290;14.382;2023-07-28T01:05:00;14.97;;;1.43;;
4174;SDS011;2101;48.290;14.382;2023-07-28T01:07:37;14.60;;;1.33;;
4174;SDS011;2101;48.290;14.382;2023-07-28T01:10:07;13.90;;;1.37;;
4174;SDS011;2101;48.290;14.382;2023-07-28T01:12:34;17.63;;;1.33;;
4174;SDS011;2101;48.290;14.382;2023-07-28T01:15:04;14.90;;;1.50;;
4174;SDS011;2101;48.290;14.382;2023-07-28T01:17:30;14.30;;;1.50;;
4174;SDS011;2101;48.290;14.382;2023-07-28T01:19:59;14.90;;;1.50;;
4174;SDS011;2101;48.290;14.382;2023-07-28T01:28:00;14.23;;;1.40;;
4174;SDS011;2101;48.290;14.382;2023-07-28T01:30:27;14.37;;;1.50;;
4174;SDS011;2101;48.290;14.382;2023-07-28T01:32:54;15.93;;;1.50;;
4174;SDS011;2101;48.290;14.382;2023-07-28T01:35:25;15.80;;;1.40;;
4174;SDS011;2101;48.290;14.382;2023-07-28T01:37:51;13.93;;;1.20;;
4174;SDS011;2101;48.290;14.382;2023-07-28T01:40:18;14.30;;;1.50;;
4174;SDS011;2101;48.290;14.382;2023-07-28T01:42:44;13.87;;;1.57;;
4174;SDS011;2101;48.290;14.382;2023-07-28T01:45:11;15.73;;;1.60;;
4174;SDS011;2101;48.290;14.382;2023-07-28T01:47:37;17.73;;;1.60;;
4174;SDS011;2101;48.290;14.382;2023-07-28T01:50:03;14.67;;;1.80;;
4174;SDS011;2101;48.290;14.382;2023-07-28T01:52:33;14.10;;;1.60;;
4174;SDS011;2101;48.290;14.382;2023-07-28T01:55:01;15.00;;;1.60;;
4174;SDS011;2101;48.290;14.382;2023-07-28T01:57:30;14.57;;;1.80;;
4174;SDS011;2101;48.290;14.382;2023-07-28T01:59:56;16.60;;;1.70;;
4174;SDS011;2101;48.290;14.382;2023-07-28T02:02:25;15.37;;;1.90;;
4174;SDS011;2101;48.290;14.382;2023-07-28T02:04:51;15.93;;;1.70;;
4174;SDS011;2101;48.290;14.382;2023-07-28T02:07:17;14.00;;;1.40;;
4174;SDS011;2101;48.290;14.382;2023-07-28T02:09:44;14.27;;;1.40;;
4174;SDS011;2101;48.290;14.382;2023-07-28T02:12:11;14.67;;;1.43;;
4174;SDS011;2101;48.290;14.382;2023-07-28T02:14:37;14.50;;;1.57;;
4174;SDS011;2101;48.290;14.382;2023-07-28T02:17:03;14.50;;;1.40;;
4174;SDS011;2101;48.290;14.382;2023-07-28T02:19:30;14.40;;;1.50;;
4174;SDS011;2101;48.290;14.382;2023-07-28T02:21:56;14.63;;;1.50;;
4174;SDS011;2101;48.290;14.382;2023-07-28T02:24:25;14.30;;;1.50;;
4174;SDS011;2101;48.290;14.382;2023-07-28T02:26:58;15.80;;;1.50;;
4174;SDS011;2101;48.290;14.382;2023-07-28T02:29:24;13.80;;;1.20;;
4174;SDS011;2101;48.290;14.382;2023-07-28T02:31:50;14.63;;;1.47;;
4174;SDS011;2101;48.290;14.382;2023-07-28T02:34:16;14.97;;;1.83;;
4174;SDS011;2101;48.290;14.382;2023-07-28T02:36:42;15.20;;;1.50;;
4174;SDS011;2101;48.290;14.382;2023-07-28T02:39:11;14.90;;;1.60;;
4174;SDS011;2101;48.290;14.382;2023-07-28T02:41:37;14.63;;;1.47;;
4174;SDS011;2101;48.290;14.382;2023-07-28T02:44:04;14.97;;;1.57;;
4174;SDS011;2101;48.290;14.382;2023-07-28T02:46:30;15.60;;;1.97;;
4174;SDS011;2101;48.290;14.382;2023-07-28T02:48:56;13.70;;;1.40;;
4174;SDS011;2101;48.290;14.382;2023-07-28T02:51:23;13.87;;;1.33;;
4174;SDS011;2101;48.290;14.382;2023-07-28T02:53:49;16.40;;;1.70;;
4174;SDS011;2101;48.290;14.382;2023-07-28T02:56:17;14.97;;;2.00;;
4174;SDS011;2101;48.290;14.382;2023-07-28T02:58:47;14.80;;;1.93;;
4174;SDS011;2101;48.290;14.382;2023-07-28T03:01:13;14.50;;;1.77;;
4174;SDS011;2101;48.290;14.382;2023-07-28T03:03:43;15.80;;;1.50;;
4174;SDS011;2101;48.290;14.382;2023-07-28T03:06:09;14.70;;;1.83;;
4174;SDS011;2101;48.290;14.382;2023-07-28T03:08:38;15.13;;;1.80;;
4174;SDS011;2101;48.290;14.382;2023-07-28T03:11:04;14.60;;;1.57;;
4174;SDS011;2101;48.290;14.382;2023-07-28T03:13:31;17.60;;;1.87;;
4174;SDS011;2101;48.290;14.382;2023-07-28T03:15:57;15.73;;;1.40;;
4174;SDS011;2101;48.290;14.382;2023-07-28T03:18:24;15.13;;;2.00;;
4174;SDS011;2101;48.290;14.382;2023-07-28T03:20:51;13.73;;;1.23;;
4174;SDS011;2101;48.290;14.382;2023-07-28T03:23:17;14.90;;;1.50;;
4174;SDS011;2101;48.290;14.382;2023-07-28T03:25:45;15.23;;;1.90;;
4174;SDS011;2101;48.290;14.382;2023-07-28T03:28:11;13.73;;;1.30;;
4174;SDS011;2101;48.290;14.382;2023-07-28T03:30:38;14.97;;;1.47;;
4174;SDS011;2101;48.290;14.382;2023-07-28T03:33:05;16.20;;;1.67;;
4174;SDS011;2101;48.290;14.382;2023-07-28T03:35:31;14.03;;;1.40;;
4174;SDS011;2101;48.290;14.382;2023-07-28T03:37:57;14.97;;;1.53;;
4174;SDS011;2101;48.290;14.382;2023-07-28T03:40:23;13.57;;;1.27;;
4174;SDS011;2101;48.290;14.382;2023-07-28T03:42:50;14.17;;;1.40;;
4174;SDS011;2101;48.290;14.382;2023-07-28T03:45:16;15.20;;;1.80;;
4174;SDS011;2101;48.290;14.382;2023-07-28T03:47:44;14.80;;;1.53;;
4174;SDS011;2101;48.290;14.382;2023-07-28T03:50:10;18.50;;;1.90;;
4174;SDS011;2101;48.290;14.382;2023-07-28T03:52:36;14.50;;;1.50;;
4174;SDS011;2101;48.290;14.382;2023-07-28T03:55:03;14.57;;;1.70;;
4174;SDS011;2101;48.290;14.382;2023-07-28T03:57:29;14.70;;;1.50;;
4174;SDS011;2101;48.290;14.382;2023-07-28T03:59:55;15.57;;;2.00;;
4174;SDS011;2101;48.290;14.382;2023-07-28T04:02:24;15.87;;;1.80;;
4174;SDS011;2101;48.290;14.382;2023-07-28T04:04:54;15.10;;;2.00;;
4174;SDS011;2101;48.290;14.382;2023-07-28T04:07:21;15.83;;;2.10;;
4174;SDS011;2101;48.290;14.382;2023-07-28T04:09:47;17.03;;;1.73;;
4174;SDS011;2101;48.290;14.382;2023-07-28T04:12:16;15.80;;;2.00;;
4174;SDS011;2101;48.290;14.382;2023-07-28T04:14:42;15.67;;;1.87;;
4174;SDS011;2101;48.290;14.382;2023-07-28T04:17:19;15.17;;;1.83;;
4174;SDS011;2101;48.290;14.382;2023-07-28T04:19:45;19.43;;;1.80;;
4174;SDS011;2101;48.290;14.382;2023-07-28T04:22:12;16.47;;;2.27;;
4174;SDS011;2101;48.290;14.382;2023-07-28T04:24:47;17.47;;;2.47;;
4174;SDS011;2101;48.290;14.382;2023-07-28T04:27:16;16.47;;;2.20;;
4174;SDS011;2101;48.290;14.382;2023-07-28T04:29:43;15.53;;;2.00;;
4174;SDS011;2101;48.290;14.382;2023-07-28T04:32:09;20.50;;;2.70;;
4174;SDS011;2101;48.290;14.382;2023-07-28T04:34:38;29.93;;;2.10;;
4174;SDS011;2101;48.290;14.382;2023-07-28T04:37:07;19.90;;;2.47;;
4174;SDS011;2101;48.290;14.382;2023-07-28T04:39:33;14.80;;;1.90;;
4174;SDS011;2101;48.290;14.382;2023-07-28T04:41:59;23.17;;;3.10;;
4174;SDS011;2101;48.290;14.382;2023-07-28T04:44:26;15.57;;;2.40;;
4174;SDS011;2101;48.290;14.382;2023-07-28T04:46:53;15.73;;;2.40;;
4174;SDS011;2101;48.290;14.382;2023-07-28T04:49:19;19.37;;;2.37;;
4174;SDS011;2101;48.290;14.382;2023-07-28T04:51:46;15.93;;;2.20;;
4174;SDS011;2101;48.290;14.382;2023-07-28T04:54:15;18.00;;;3.10;;
4174;SDS011;2101;48.290;14.382;2023-07-28T04:56:41;18.13;;;3.40;;
4174;SDS011;2101;48.290;14.382;2023-07-28T04:59:07;15.90;;;2.40;;
4174;SDS011;2101;48.290;14.382;2023-07-28T05:01:33;17.40;;;3.23;;
4174;SDS011;2101;48.290;14.382;2023-07-28T05:04:00;15.57;;;2.47;;
4174;SDS011;2101;48.290;14.382;2023-07-28T05:06:26;17.20;;;2.40;;
4174;SDS011;2101;48.290;14.382;2023-07-28T05:08:53;14.50;;;1.70;;
4174;SDS011;2101;48.290;14.382;2023-07-28T05:11:19;18.13;;;2.97;;
4174;SDS011;2101;48.290;14.382;2023-07-28T05:13:46;21.53;;;3.50;;
4174;SDS011;2101;48.290;14.382;2023-07-28T05:16:13;15.93;;;3.10;;
4174;SDS011;2101;48.290;14.382;2023-07-28T05:18:39;17.90;;;3.67;;
4174;SDS011;2101;48.290;14.382;2023-07-28T05:21:08;17.77;;;2.70;;
4174;SDS011;2101;48.290;14.382;2023-07-28T05:23:39;14.40;;;1.70;;
4174;SDS011;2101;48.290;14.382;2023-07-28T05:26:08;14.50;;;1.90;;
4174;SDS011;2101;48.290;14.382;2023-07-28T05:28:37;15.27;;;2.43;;
4174;SDS011;2101;48.290;14.382;2023-07-28T05:31:04;16.30;;;2.83;;
4174;SDS011;2101;48.290;14.382;2023-07-28T05:33:30;15.60;;;2.00;;
4174;SDS011;2101;48.290;14.382;2023-07-28T05:36:01;16.30;;;1.70;;
4174;SDS011;2101;48.290;14.382;2023-07-28T05:38:28;14.57;;;2.10;;
4174;SDS011;2101;48.290;14.382;2023-07-28T05:40:58;16.40;;;2.60;;
4174;SDS011;2101;48.290;14.382;2023-07-28T05:43:29;19.07;;;2.70;;
4174;SDS011;2101;48.290;14.382;2023-07-28T05:45:56;16.30;;;2.87;;
4174;SDS011;2101;48.290;14.382;2023-07-28T05:48:22;17.30;;;2.10;;
4174;SDS011;2101;48.290;14.382;2023-07-28T05:50:48;21.50;;;2.67;;
4174;SDS011;2101;48.290;14.382;2023-07-28T05:53:16;15.90;;;2.70;;
4174;SDS011;2101;48.290;14.382;2023-07-28T05:55:42;15.27;;;2.00;;
4174;SDS011;2101;48.290;14.382;2023-07-28T05:58:08;17.00;;;2.47;;
4174;SDS011;2101;48.290;14.382;2023-07-28T06:00:34;14.60;;;2.07;;
4174;SDS011;2101;48.290;14.382;2023-07-28T06:03:04;13.90;;;1.70;;
4174;SDS011;2101;48.290;14.382;2023-07-28T06:05:31;15.70;;;2.30;;
4174;SDS011;2101;48.290;14.382;2023-07-28T06:07:58;14.90;;;2.17;;
4174;SDS011;2101;48.290;14.382;2023-07-28T06:10:24;14.70;;;2.10;;
4174;SDS011;2101;48.290;14.382;2023-07-28T06:12:50;14.77;;;2.20;;
4174;SDS011;2101;48.290;14.382;2023-07-28T06:15:16;14.20;;;1.93;;
4174;SDS011;2101;48.290;14.382;2023-07-28T06:17:43;14.70;;;1.83;;
4174;SDS011;2101;48.290;14.382;2023-07-28T06:20:09;15.00;;;1.90;;
4174;SDS011;2101;48.290;14.382;2023-07-28T06:22:35;14.10;;;2.10;;
4174;SDS011;2101;48.290;14.382;2023-07-28T06:25:02;23.83;;;2.67;;
4174;SDS011;2101;48.290;14.382;2023-07-28T06:27:28;15.57;;;2.40;;
4174;SDS011;2101;48.290;14.382;2023-07-28T06:29:55;14.20;;;2.17;;
4174;SDS011;2101;48.290;14.382;2023-07-28T06:32:21;15.37;;;2.20;;
4174;SDS011;2101;48.290;14.382;2023-07-28T06:34:48;16.43;;;2.70;;
4174;SDS011;2101;48.290;14.382;2023-07-28T06:37:18;14.50;;;2.00;;
4174;SDS011;2101;48.290;14.382;2023-07-28T06:39:44;14.53;;;2.17;;
4174;SDS011;2101;48.290;14.382;2023-07-28T06:42:14;14.43;;;2.40;;
4174;SDS011;2101;48.290;14.382;2023-07-28T06:44:42;13.37;;;1.43;;
4174;SDS011;2101;48.290;14.382;2023-07-28T06:47:08;14.33;;;2.23;;
4174;SDS011;2101;48.290;14.382;2023-07-28T06:49:34;14.30;;;2.00;;
4174;SDS011;2101;48.290;14.382;2023-07-28T06:52:01;13.67;;;2.00;;
4174;SDS011;2101;48.290;14.382;2023-07-28T06:54:27;13.43;;;1.73;;
4174;SDS011;2101;48.290;14.382;2023-07-28T06:56:54;15.37;;;2.10;;
4174;SDS011;2101;48.290;14.382;2023-07-28T06:59:20;13.32;;;1.65;;
4174;SDS011;2101;48.290;14.382;2023-07-28T07:01:46;13.90;;;1.90;;
4174;SDS011;2101;48.290;14.382;2023-07-28T07:04:13;16.20;;;2.28;;
4174;SDS011;2101;48.290;14.382;2023-07-28T07:06:39;13.52;;;1.92;;
4174;SDS011;2101;48.290;14.382;2023-07-28T07:09:08;14.98;;;1.73;;
4174;SDS011;2101;48.290;14.382;2023-07-28T07:11:38;15.10;;;1.80;;
4174;SDS011;2101;48.290;14.382;2023-07-28T07:14:08;13.27;;;1.98;;
4174;SDS011;2101;48.290;14.382;2023-07-28T07:16:34;14.05;;;2.03;;
4174;SDS011;2101;48.290;14.382;2023-07-28T07:19:04;18.13;;;2.28;;
4174;SDS011;2101;48.290;14.382;2023-07-28T07:21:30;12.85;;;1.70;;
4174;SDS011;2101;48.290;14.382;2023-07-28T07:23:57;16.23;;;1.90;;
4174;SDS011;2101;48.290;14.382;2023-07-28T07:26:24;13.85;;;2.28;;
4174;SDS011;2101;48.290;14.382;2023-07-28T07:29:02;14.93;;;2.17;;
4174;SDS011;2101;48.290;14.382;2023-07-28T07:31:28;15.38;;;1.90;;
4174;SDS011;2101;48.290;14.382;2023-07-28T07:33:55;12.98;;;1.85;;
4174;SDS011;2101;48.290;14.382;2023-07-28T07:36:21;15.57;;;2.97;;
4174;SDS011;2101;48.290;14.382;2023-07-28T07:38:47;15.45;;;3.17;;
4174;SDS011;2101;48.290;14.382;2023-07-28T07:41:16;16.80;;;3.17;;
4174;SDS011;2101;48.290;14.382;2023-07-28T07:43:53;18.95;;;2.95;;
4174;SDS011;2101;48.290;14.382;2023-07-28T07:46:22;20.30;;;3.17;;
4174;SDS011;2101;48.290;14.382;2023-07-28T07:48:48;17.25;;;2.95;;
4174;SDS011;2101;48.290;14.382;2023-07-28T07:51:17;18.23;;;2.63;;
4174;SDS011;2101;48.290;14.382;2023-07-28T07:53:44;19.45;;;3.20;;
4174;SDS011;2101;48.290;14.382;2023-07-28T07:56:10;17.85;;;3.60;;
4174;SDS011;2101;48.290;14.382;2023-07-28T07:58:37;19.13;;;3.60;;
4174;SDS011;2101;48.290;14.382;2023-07-28T08:01:03;17.48;;;3.60;;
4174;SDS011;2101;48.290;14.382;2023-07-28T08:03:29;18.42;;;2.92;;
4174;SDS011;2101;48.290;14.382;2023-07-28T08:06:00;15.70;;;2.88;;
4174;SDS011;2101;48.290;14.382;2023-07-28T08:08:26;16.23;;;2.00;;
4174;SDS011;2101;48.290;14.382;2023-07-28T08:10:55;15.85;;;2.28;;
4174;SDS011;2101;48.290;14.382;2023-07-28T08:13:22;14.38;;;2.22;;
4174;SDS011;2101;48.290;14.382;2023-07-28T08:15:48;17.13;;;2.53;;
4174;SDS011;2101;48.290;14.382;2023-07-28T08:18:15;20.40;;;2.80;;
4174;SDS011;2101;48.290;14.382;2023-07-28T08:20:44;20.17;;;2.25;;
4174;SDS011;2101;48.290;14.382;2023-07-28T08:23:10;22.65;;;2.47;;
4174;SDS011;2101;48.290;14.382;2023-07-28T08:25:36;16.30;;;1.75;;
4174;SDS011;2101;48.290;14.382;2023-07-28T08:28:02;17.45;;;2.25;;
4174;SDS011;2101;48.290;14.382;2023-07-28T08:30:29;14.32;;;1.98;;
4174;SDS011;2101;48.290;14.382;2023-07-28T08:32:56;19.38;;;2.10;;
4174;SDS011;2101;48.290;14.382;2023-07-28T08:35:23;16.75;;;1.75;;
4174;SDS011;2101;48.290;14.382;2023-07-28T08:37:49;13.73;;;1.60;;
4174;SDS011;2101;48.290;14.382;2023-07-28T08:40:16;16.05;;;2.45;;
4174;SDS011;2101;48.290;14.382;2023-07-28T08:42:42;14.95;;;2.30;;
4174;SDS011;2101;48.290;14.382;2023-07-28T08:45:09;17.80;;;2.28;;
4174;SDS011;2101;48.290;14.382;2023-07-28T08:47:36;15.00;;;1.90;;
4174;SDS011;2101;48.290;14.382;2023-07-28T08:50:03;13.43;;;2.00;;
4174;SDS011;2101;48.290;14.382;2023-07-28T08:52:34;18.90;;;2.60;;
4174;SDS011;2101;48.290;14.382;2023-07-28T08:55:00;15.40;;;2.13;;
4174;SDS011;2101;48.290;14.382;2023-07-28T08:57:27;15.30;;;2.55;;
4174;SDS011;2101;48.290;14.382;2023-07-28T08:59:53;13.63;;;1.70;;
4174;SDS011;2101;48.290;14.382;2023-07-28T09:02:20;14.98;;;2.15;;
4174;SDS011;2101;48.290;14.382;2023-07-28T09:04:47;14.55;;;2.28;;
4174;SDS011;2101;48.290;14.382;2023-07-28T09:07:21;13.68;;;1.85;;
4174;SDS011;2101;48.290;14.382;2023-07-28T09:09:49;13.95;;;1.75;;
4174;SDS011;2101;48.290;14.382;2023-07-28T09:12:16;15.20;;;2.05;;
4174;SDS011;2101;48.290;14.382;2023-07-28T09:14:42;13.85;;;1.80;;
4174;SDS011;2101;48.290;14.382;2023-07-28T09:17:09;14.90;;;2.53;;
4174;SDS011;2101;48.290;14.382;2023-07-28T09:19:48;15.00;;;2.28;;
4174;SDS011;2101;48.290;14.382;2023-07-28T09:22:15;14.80;;;1.83;;
4174;SDS011;2101;48.290;14.382;2023-07-28T09:24:41;13.57;;;1.63;;
4174;SDS011;2101;48.290;14.382;2023-07-28T09:27:08;15.02;;;1.80;;
4174;SDS011;2101;48.290;14.382;2023-07-28T09:29:47;15.30;;;1.90;;
4174;SDS011;2101;48.290;14.382;2023-07-28T09:32:14;14.93;;;2.13;;
4174;SDS011;2101;48.290;14.382;2023-07-28T09:34:43;13.77;;;1.80;;
4174;SDS011;2101;48.290;14.382;2023-07-28T09:37:09;14.07;;;1.70;;
4174;SDS011;2101;48.290;14.382;2023-07-28T09:39:36;14.70;;;1.40;;
4174;SDS011;2101;48.290;14.382;2023-07-28T09:42:05;16.63;;;1.70;;
4174;SDS011;2101;48.290;14.382;2023-07-28T09:44:34;14.37;;;1.80;;
4174;SDS011;2101;48.290;14.382;2023-07-28T09:47:00;14.17;;;1.80;;
4174;SDS011;2101;48.290;14.382;2023-07-28T09:49:36;30.77;;;1.57;;
4174;SDS011;2101;48.290;14.382;2023-07-28T09:52:08;16.53;;;1.70;;
4174;SDS011;2101;48.290;14.382;2023-07-28T09:54:41;13.97;;;1.50;;
4174;SDS011;2101;48.290;14.382;2023-07-28T09:57:11;19.53;;;1.50;;
4174;SDS011;2101;48.290;14.382;2023-07-28T09:59:42;15.00;;;1.70;;
4174;SDS011;2101;48.290;14.382;2023-07-28T10:02:08;15.37;;;2.00;;
4174;SDS011;2101;48.290;14.382;2023-07-28T10:04:37;14.30;;;1.63;;
4174;SDS011;2101;48.290;14.382;2023-07-28T10:07:06;15.40;;;1.17;;
4174;SDS011;2101;48.290;14.382;2023-07-28T10:09:36;13.33;;;1.40;;
4174;SDS011;2101;48.290;14.382;2023-07-28T10:12:03;16.07;;;1.60;;
4174;SDS011;2101;48.290;14.382;2023-07-28T10:14:30;12.77;;;1.20;;
4174;SDS011;2101;48.290;14.382;2023-07-28T10:17:00;15.63;;;2.03;;
4174;SDS011;2101;48.290;14.382;2023-07-28T10:19:36;14.60;;;1.73;;
4174;SDS011;2101;48.290;14.382;2023-07-28T10:22:09;15.23;;;1.63;;
4174;SDS011;2101;48.290;14.382;2023-07-28T10:27:40;13.87;;;1.40;;
4174;SDS011;2101;48.290;14.382;2023-07-28T10:30:05;14.43;;;1.37;;
4174;SDS011;2101;48.290;14.382;2023-07-28T10:32:40;12.73;;;1.13;;
4174;SDS011;2101;48.290;14.382;2023-07-28T10:37:33;15.93;;;1.83;;
4174;SDS011;2101;48.290;14.382;2023-07-28T10:42:46;14.00;;;1.60;;
4174;SDS011;2101;48.290;14.382;2023-07-28T10:45:15;15.00;;;1.50;;
4174;SDS011;2101;48.290;14.382;2023-07-28T10:47:41;19.40;;;1.53;;
4174;SDS011;2101;48.290;14.382;2023-07-28T10:50:10;13.73;;;1.60;;
4174;SDS011;2101;48.290;14.382;2023-07-28T10:52:42;14.37;;;1.50;;
4174;SDS011;2101;48.290;14.382;2023-07-28T10:55:16;13.00;;;1.30;;
4174;SDS011;2101;48.290;14.382;2023-07-28T10:57:43;14.07;;;1.63;;
4174;SDS011;2101;48.290;14.382;2023-07-28T11:00:10;21.93;;;1.50;;
4174;SDS011;2101;48.290;14.382;2023-07-28T11:02:43;14.30;;;1.30;;
4174;SDS011;2101;48.290;14.382;2023-07-28T11:05:13;13.73;;;1.53;;
4174;SDS011;2101;48.290;14.382;2023-07-28T11:07:40;14.63;;;1.77;;
4174;SDS011;2101;48.290;14.382;2023-07-28T11:10:07;12.63;;;1.20;;
4174;SDS011;2101;48.290;14.382;2023-07-28T11:12:34;13.47;;;1.60;;
4174;SDS011;2101;48.290;14.382;2023-07-28T11:15:00;14.20;;;1.40;;
4174;SDS011;2101;48.290;14.382;2023-07-28T11:17:26;13.53;;;1.30;;
4174;SDS011;2101;48.290;14.382;2023-07-28T11:19:58;12.87;;;1.30;;
4174;SDS011;2101;48.290;14.382;2023-07-28T11:22:24;12.97;;;1.10;;
4174;SDS011;2101;48.290;14.382;2023-07-28T11:24:51;13.87;;;1.10;;
4174;SDS011;2101;48.290;14.382;2023-07-28T11:27:20;13.20;;;1.40;;
4174;SDS011;2101;48.290;14.382;2023-07-28T11:29:48;13.00;;;1.20;;
4174;SDS011;2101;48.290;14.382;2023-07-28T11:32:16;14.13;;;1.13;;
4174;SDS011;2101;48.290;14.382;2023-07-28T11:34:43;13.23;;;1.40;;
4174;SDS011;2101;48.290;14.382;2023-07-28T11:37:09;14.17;;;1.20;;
4174;SDS011;2101;48.290;14.382;2023-07-28T11:39:37;13.87;;;1.40;;
4174;SDS011;2101;48.290;14.382;2023-07-28T11:42:04;13.83;;;1.23;;
4174;SDS011;2101;48.290;14.382;2023-07-28T11:44:30;13.57;;;1.23;;
4174;SDS011;2101;48.290;14.382;2023-07-28T11:46:59;14.40;;;1.20;;
4174;SDS011;2101;48.290;14.382;2023-07-28T11:49:25;20.83;;;1.43;;
4174;SDS011;2101;48.290;14.382;2023-07-28T11:51:55;13.50;;;1.50;;
4174;SDS011;2101;48.290;14.382;2023-07-28T11:54:24;13.73;;;1.50;;
4174;SDS011;2101;48.290;14.382;2023-07-28T11:56:54;14.97;;;1.67;;
4174;SDS011;2101;48.290;14.382;2023-07-28T11:59:20;14.07;;;1.53;;
4174;SDS011;2101;48.290;14.382;2023-07-28T12:01:56;14.70;;;1.60;;
4174;SDS011;2101;48.290;14.382;2023-07-28T12:04:34;12.90;;;1.23;;
4174;SDS011;2101;48.290;14.382;2023-07-28T12:07:11;14.40;;;1.40;;
4174;SDS011;2101;48.290;14.382;2023-07-28T12:12:17;13.83;;;1.57;;
4174;SDS011;2101;48.290;14.382;2023-07-28T12:14:48;14.40;;;1.40;;
4174;SDS011;2101;48.290;14.382;2023-07-28T12:17:17;13.10;;;1.30;;
4174;SDS011;2101;48.290;14.382;2023-07-28T12:19:59;13.80;;;1.60;;
4174;SDS011;2101;48.290;14.382;2023-07-28T12:22:26;13.30;;;1.20;;
4174;SDS011;2101;48.290;14.382;2023-07-28T12:24:53;21.10;;;1.70;;
4174;SDS011;2101;48.290;14.382;2023-07-28T12:27:19;13.93;;;1.43;;
4174;SDS011;2101;48.290;14.382;2023-07-28T12:29:48;14.40;;;1.50;;
4174;SDS011;2101;48.290;14.382;2023-07-28T12:32:14;18.37;;;1.97;;
4174;SDS011;2101;48.290;14.382;2023-07-28T12:34:40;14.30;;;1.83;;
4174;SDS011;2101;48.290;14.382;2023-07-28T12:37:07;16.13;;;2.30;;
4174;SDS011;2101;48.290;14.382;2023-07-28T12:39:35;15.80;;;1.67;;
4174;SDS011;2101;48.290;14.382;2023-07-28T12:42:02;13.43;;;1.37;;
4174;SDS011;2101;48.290;14.382;2023-07-28T12:44:28;14.40;;;1.70;;
4174;SDS011;2101;48.290;14.382;2023-07-28T12:46:57;13.57;;;1.50;;
4174;SDS011;2101;48.290;14.382;2023-07-28T12:49:23;17.20;;;1.50;;
4174;SDS011;2101;48.290;14.382;2023-07-28T12:51:49;13.40;;;1.33;;
4174;SDS011;2101;48.290;14.382;2023-07-28T12:54:16;16.00;;;1.43;;
4174;SDS011;2101;48.290;14.382;2023-07-28T12:56:42;15.00;;;1.80;;
4174;SDS011;2101;48.290;14.382;2023-07-28T12:59:08;13.17;;;1.27;;
4174;SDS011;2101;48.290;14.382;2023-07-28T13:01:36;14.13;;;1.40;;
4174;SDS011;2101;48.290;14.382;2023-07-28T13:04:02;14.90;;;2.00;;
4174;SDS011;2101;48.290;14.382;2023-07-28T13:06:28;16.40;;;2.27;;
4174;SDS011;2101;48.290;14.382;2023-07-28T13:08:54;13.83;;;1.60;;
4174;SDS011;2101;48.290;14.382;2023-07-28T13:11:23;13.33;;;1.40;;
4174;SDS011;2101;48.290;14.382;2023-07-28T13:13:49;14.47;;;1.73;;
4174;SDS011;2101;48.290;14.382;2023-07-28T13:16:15;14.73;;;1.73;;
4174;SDS011;2101;48.290;14.382;2023-07-28T13:18:42;13.30;;;1.70;;
4174;SDS011;2101;48.290;14.382;2023-07-28T13:21:08;14.57;;;1.90;;
4174;SDS011;2101;48.290;14.382;2023-07-28T13:23:36;14.30;;;1.63;;
4174;SDS011;2101;48.290;14.382;2023-07-28T13:26:02;14.33;;;1.33;;
4174;SDS011;2101;48.290;14.382;2023-07-28T13:28:31;15.27;;;2.27;;
4174;SDS011;2101;48.290;14.382;2023-07-28T13:30:59;13.50;;;1.60;;
4174;SDS011;2101;48.290;14.382;2023-07-28T13:33:25;15.10;;;1.87;;
4174;SDS011;2101;48.290;14.382;2023-07-28T13:35:55;16.67;;;1.80;;
4174;SDS011;2101;48.290;14.382;2023-07-28T13:38:21;16.20;;;1.90;;
4174;SDS011;2101;48.290;14.382;2023-07-28T13:40:48;22.63;;;1.97;;
4174;SDS011;2101;48.290;14.382;2023-07-28T13:43:14;16.30;;;1.80;;
4174;SDS011;2101;48.290;14.382;2023-07-28T13:45:40;13.93;;;1.70;;
4174;SDS011;2101;48.290;14.382;2023-07-28T13:48:06;14.70;;;1.53;;
4174;SDS011;2101;48.290;14.382;2023-07-28T13:50:32;14.93;;;1.70;;
4174;SDS011;2101;48.290;14.382;2023-07-28T13:53:02;15.40;;;1.63;;
4174;SDS011;2101;48.290;14.382;2023-07-28T13:55:28;15.80;;;1.40;;
4174;SDS011;2101;48.290;14.382;2023-07-28T13:57:54;14.10;;;1.70;;
4174;SDS011;2101;48.290;14.382;2023-07-28T14:00:20;20.53;;;1.70;;
4174;SDS011;2101;48.290;14.382;2023-07-28T14:02:47;16.87;;;2.00;;
4174;SDS011;2101;48.290;14.382;2023-07-28T14:05:13;13.67;;;1.97;;
4174;SDS011;2101;48.290;14.382;2023-07-28T14:07:39;14.07;;;1.90;;
4174;SDS011;2101;48.290;14.382;2023-07-28T14:10:05;17.43;;;2.20;;
4174;SDS011;2101;48.290;14.382;2023-07-28T14:12:31;19.20;;;1.80;;
4174;SDS011;2101;48.290;14.382;2023-07-28T14:14:57;13.57;;;1.47;;
4174;SDS011;2101;48.290;14.382;2023-07-28T14:17:24;14.23;;;1.80;;
4174;SDS011;2101;48.290;14.382;2023-07-28T14:19:50;14.57;;;1.60;;
4174;SDS011;2101;48.290;14.382;2023-07-28T14:22:17;14.63;;;1.70;;
4174;SDS011;2101;48.290;14.382;2023-07-28T14:24:43;13.90;;;1.40;;
4174;SDS011;2101;48.290;14.382;2023-07-28T14:27:10;13.93;;;1.30;;
4174;SDS011;2101;48.290;14.382;2023-07-28T14:29:36;14.27;;;1.60;;
4174;SDS011;2101;48.290;14.382;2023-07-28T14:32:02;14.40;;;1.67;;
4174;SDS011;2101;48.290;14.382;2023-07-28T14:34:28;14.10;;;1.60;;
4174;SDS011;2101;48.290;14.382;2023-07-28T14:36:54;14.50;;;1.57;;
4174;SDS011;2101;48.290;14.382;2023-07-28T14:39:20;15.27;;;1.80;;
4174;SDS011;2101;48.290;14.382;2023-07-28T14:41:48;17.07;;;1.60;;
4174;SDS011;2101;48.290;14.382;2023-07-28T14:44:14;24.20;;;2.27;;
4174;SDS011;2101;48.290;14.382;2023-07-28T14:46:41;14.73;;;1.67;;
4174;SDS011;2101;48.290;14.382;2023-07-28T14:49:11;14.30;;;1.83;;
4174;SDS011;2101;48.290;14.382;2023-07-28T14:51:37;14.60;;;1.73;;
4174;SDS011;2101;48.290;14.382;2023-07-28T14:54:04;14.53;;;1.70;;
4174;SDS011;2101;48.290;14.382;2023-07-28T14:56:30;14.40;;;1.50;;
4174;SDS011;2101;48.290;14.382;2023-07-28T14:58:57;15.17;;;1.87;;
4174;SDS011;2101;48.290;14.382;2023-07-28T15:01:27;15.93;;;1.67;;
4174;SDS011;2101;48.290;14.382;2023-07-28T15:03:55;15.03;;;1.63;;
4174;SDS011;2101;48.290;14.382;2023-07-28T15:06:21;14.10;;;1.50;;